Time;durP1;ratioP1;P1;durP2;ratioP2;P2;SDS_P1;SDS_P2;PMS_P1;PMS_P2;Temp;Humidity;BMP_temperature;BMP_pressure;BME280_temperature;BME280_humidity;BME280_pressure;Samples;Min_cycle;Max_cycle;Signal;HPM_P1;HPM_P2
2024/02/23 00:01:46;;;;;;;4.28;1.30;;;9.70;99.90;;;;;;7379358;19;20006;-75
2024/02/23 00:04:15;;;;;;;7.05;1.52;;;9.60;99.90;;;;;;7379712;19;20003;-74
2024/02/23 00:06:44;;;;;;;9.18;1.85;;;9.70;99.90;;;;;;7379722;19;20014;-75
2024/02/23 00:09:13;;;;;;;9.25;1.52;;;9.60;99.90;;;;;;7379960;19;20104;-75
2024/02/23 00:11:47;;;;;;;7.25;1.58;;;9.70;99.90;;;;;;7379496;19;20066;-75
2024/02/23 00:14:18;;;;;;;3.10;1.30;;;9.70;99.90;;;;;;7399270;19;19999;-75
2024/02/23 00:16:47;;;;;;;13.77;1.63;;;9.40;99.90;;;;;;7378068;19;20369;-75
2024/02/23 00:19:18;;;;;;;7.13;1.48;;;9.30;99.90;;;;;;7378467;19;20026;-75
2024/02/23 00:21:49;;;;;;;8.60;1.52;;;9.10;99.90;;;;;;7379308;19;20046;-76
2024/02/23 00:24:20;;;;;;;15.55;1.27;;;9.20;99.90;;;;;;7379831;19;20006;-75
2024/02/23 00:26:51;;;;;;;5.33;1.50;;;9.30;99.90;;;;;;7383104;19;20345;-76
2024/02/23 00:29:21;;;;;;;;;;;9.40;99.90;;;;;;7402299;19;20367;-76
2024/02/23 00:31:50;;;;;;;14.73;1.55;;;9.40;99.90;;;;;;7378549;19;19995;-75
2024/02/23 00:34:18;;;;;;;7.78;1.17;;;9.40;99.90;;;;;;7378998;19;20066;-76
2024/02/23 00:36:48;;;;;;;3.67;1.10;;;9.40;99.90;;;;;;7379733;19;20039;-76
2024/02/23 00:39:17;;;;;;;9.18;1.83;;;9.40;99.90;;;;;;7385117;19;20066;-76
2024/02/23 00:41:46;;;;;;;13.70;1.92;;;9.40;99.90;;;;;;7386608;19;20011;-76
2024/02/23 00:44:20;;;;;;;9.20;1.45;;;9.40;99.90;;;;;;7406889;19;20014;-76
2024/02/23 00:46:48;;;;;;;7.60;1.88;;;9.50;99.90;;;;;;7384780;19;20007;-76
2024/02/23 00:49:17;;;;;;;7.88;1.67;;;9.60;99.90;;;;;;7385443;19;20002;-76
2024/02/23 00:51:46;;;;;;;9.60;2.25;;;9.70;99.90;;;;;;7380135;19;20020;-76
2024/02/23 00:54:14;;;;;;;14.48;1.63;;;9.70;99.90;;;;;;7378305;19;20058;-76
2024/02/23 00:56:44;;;;;;;4.20;1.58;;;9.50;99.90;;;;;;7378276;19;20011;-76
2024/02/23 00:59:13;;;;;;;17.55;1.67;;;9.60;99.90;;;;;;7398387;19;20361;-76
2024/02/23 01:01:44;;;;;;;15.88;2.30;;;9.50;99.90;;;;;;7377300;19;20078;-76
2024/02/23 01:04:13;;;;;;;6.25;1.75;;;9.40;99.90;;;;;;7377503;19;20361;-76
2024/02/23 01:06:42;;;;;;;12.07;1.85;;;9.30;99.90;;;;;;7377793;19;20069;-76
2024/02/23 01:09:10;;;;;;;8.35;1.85;;;9.40;99.90;;;;;;7378184;19;20011;-75
2024/02/23 01:11:39;;;;;;;17.20;2.28;;;9.50;99.90;;;;;;7399583;19;20011;-75
2024/02/23 01:14:08;;;;;;;18.25;2.30;;;9.60;99.90;;;;;;7377538;19;20051;-76
2024/02/23 01:16:37;;;;;;;10.27;2.22;;;9.70;99.90;;;;;;7376591;19;20006;-75
2024/02/23 01:19:09;;;;;;;8.73;1.70;;;9.60;99.90;;;;;;7377272;19;20243;-75
2024/02/23 01:21:37;;;;;;;14.55;2.22;;;9.60;99.90;;;;;;7378354;19;20369;-76
2024/02/23 01:24:07;;;;;;;14.18;1.73;;;9.60;99.90;;;;;;7378132;19;20003;-75
2024/02/23 01:26:36;;;;;;;6.38;1.73;;;9.60;99.90;;;;;;7399888;19;20016;-75
2024/02/23 01:29:04;;;;;;;6.10;1.73;;;9.50;99.90;;;;;;7377002;19;20013;-76
2024/02/23 01:31:33;;;;;;;12.73;2.33;;;9.60;99.90;;;;;;7377293;19;20028;-76
2024/02/23 01:34:02;;;;;;;6.35;1.45;;;9.60;99.90;;;;;;7377277;19;20386;-75
2024/02/23 01:36:39;;;;;;;10.85;2.05;;;9.60;99.90;;;;;;7377179;19;20010;-76
2024/02/23 01:39:07;;;;;;;6.40;1.48;;;9.60;99.90;;;;;;7380982;19;20026;-76
2024/02/23 01:41:36;;;;;;;23.60;2.90;;;9.70;99.90;;;;;;7402803;19;20353;-75
2024/02/23 01:44:07;;;;;;;17.98;1.83;;;9.60;99.90;;;;;;7383556;19;20016;-76
2024/02/23 01:46:36;;;;;;;6.25;1.70;;;9.60;99.90;;;;;;7384250;19;20006;-76
2024/02/23 01:49:05;;;;;;;16.80;2.30;;;9.70;99.90;;;;;;7383904;19;20023;-76
2024/02/23 01:51:36;;;;;;;8.70;1.70;;;9.70;99.90;;;;;;7384278;19;20010;-76
2024/02/23 01:54:06;;;;;;;9.90;1.88;;;9.50;99.90;;;;;;7381512;19;20006;-76
2024/02/23 01:56:39;;;;;;;9.43;1.73;;;9.50;99.90;;;;;;7405286;19;20011;-76
2024/02/23 01:59:09;;;;;;;8.23;1.80;;;9.50;99.90;;;;;;7382434;19;20002;-76
2024/02/23 02:01:37;;;;;;;16.35;1.73;;;9.40;99.90;;;;;;7383935;19;20058;-76
2024/02/23 02:04:06;;;;;;;6.93;1.58;;;9.50;99.90;;;;;;7383846;19;20300;-76
2024/02/23 02:06:38;;;;;;;11.70;1.63;;;9.50;99.90;;;;;;7384038;19;20408;-76
2024/02/23 02:09:06;;;;;;;8.18;1.48;;;9.50;99.90;;;;;;7383531;19;20090;-76
2024/02/23 02:11:35;;;;;;;9.07;1.77;;;9.40;99.90;;;;;;7404630;19;20341;-76
2024/02/23 02:14:04;;;;;;;9.45;1.55;;;9.40;99.90;;;;;;7382614;19;20002;-76
2024/02/23 02:16:32;;;;;;;3.80;1.13;;;9.50;99.90;;;;;;7382201;19;20079;-76
2024/02/23 02:19:01;;;;;;;6.22;1.88;;;9.50;99.90;;;;;;7382847;19;20082;-76
2024/02/23 02:21:30;;;;;;;10.38;2.22;;;9.40;99.90;;;;;;7383060;19;20020;-76
2024/02/23 02:24:03;;;;;;;6.03;1.50;;;9.40;99.90;;;;;;7382664;19;20027;-76
2024/02/23 02:26:32;;;;;;;7.63;1.77;;;9.20;99.90;;;;;;7405030;19;20066;-76
2024/02/23 02:29:01;;;;;;;12.50;1.90;;;9.40;99.90;;;;;;7382702;19;20016;-76
2024/02/23 02:31:36;;;;;;;11.35;1.75;;;9.10;99.90;;;;;;7382642;19;20226;-75
2024/02/23 02:34:08;;;;;;;6.75;2.10;;;9.30;99.90;;;;;;7382639;19;20007;-75
2024/02/23 02:36:37;;;;;;;7.90;1.85;;;9.30;99.90;;;;;;7382583;19;20264;-75
2024/02/23 02:39:10;;;;;;;11.98;1.83;;;9.30;99.90;;;;;;7379527;19;20020;-75
2024/02/23 02:41:38;;;;;;;19.15;1.75;;;9.20;99.90;;;;;;7407742;19;20010;-74
2024/02/23 02:44:09;;;;;;;12.32;1.70;;;9.30;99.90;;;;;;7381387;19;20761;-75
2024/02/23 02:46:38;;;;;;;6.85;1.70;;;9.20;99.90;;;;;;7381622;19;20370;-75
2024/02/23 02:49:06;;;;;;;6.15;1.60;;;9.30;99.90;;;;;;7381193;19;20015;-74
2024/02/23 02:51:37;;;;;;;5.93;1.58;;;9.30;99.90;;;;;;7382781;19;20085;-74
2024/02/23 02:54:09;;;;;;;9.38;1.73;;;9.20;99.90;;;;;;7381895;19;20023;-74
2024/02/23 02:56:37;;;;;;;4.82;1.50;;;9.30;99.90;;;;;;7402905;19;20015;-74
2024/02/23 02:59:06;;;;;;;6.50;1.70;;;9.40;99.90;;;;;;7380952;19;20109;-75
2024/02/23 03:01:37;;;;;;;10.63;1.40;;;9.40;99.90;;;;;;7381012;19;20267;-74
2024/02/23 03:04:06;;;;;;;5.18;1.30;;;9.40;99.90;;;;;;7381921;19;20002;-75
2024/02/23 03:06:34;;;;;;;15.63;1.88;;;9.40;99.90;;;;;;7381198;19;20052;-74
2024/02/23 03:09:04;;;;;;;14.07;1.60;;;9.40;99.90;;;;;;7381623;19;20010;-74
2024/02/23 03:11:36;;;;;;;6.35;1.60;;;9.50;99.90;;;;;;7403530;19;20006;-74
2024/02/23 03:14:09;;;;;;;6.63;1.65;;;9.40;99.90;;;;;;7381109;19;20005;-74
2024/02/23 03:16:39;;;;;;;8.57;1.65;;;9.40;99.90;;;;;;7380122;19;20010;-76
2024/02/23 03:19:07;;;;;;;6.88;1.42;;;9.40;99.90;;;;;;7381264;19;20009;-75
2024/02/23 03:21:36;;;;;;;10.68;1.85;;;9.20;99.90;;;;;;7381323;19;20028;-75
2024/02/23 03:24:05;;;;;;;12.15;1.52;;;9.20;99.90;;;;;;7383492;19;20379;-75
2024/02/23 03:26:36;;;;;;;9.45;1.42;;;9.20;99.90;;;;;;7415603;19;20042;-75
2024/02/23 03:29:05;;;;;;;6.43;1.85;;;9.30;99.90;;;;;;7393338;19;20445;-75
2024/02/23 03:31:34;;;;;;;10.63;1.85;;;9.30;99.90;;;;;;7389563;19;20058;-75
2024/02/23 03:34:02;;;;;;;4.93;1.25;;;9.30;99.90;;;;;;7393473;19;20115;-75
2024/02/23 03:36:31;;;;;;;8.52;1.90;;;9.40;99.90;;;;;;7394176;19;20015;-75
2024/02/23 03:38:59;;;;;;;11.75;1.80;;;9.40;99.90;;;;;;7392855;19;20252;-75
2024/02/23 03:41:28;;;;;;;12.60;1.70;;;9.30;99.90;;;;;;7402265;19;20011;-75
2024/02/23 03:43:59;;;;;;;11.20;1.92;;;9.30;99.90;;;;;;7380205;19;20089;-76
2024/02/23 03:46:28;;;;;;;5.82;1.15;;;9.10;99.90;;;;;;7380221;19;20070;-76
2024/02/23 03:48:57;;;;;;;11.15;1.65;;;9.10;99.90;;;;;;7380092;19;20366;-75
2024/02/23 03:51:26;;;;;;;6.53;1.30;;;9.20;99.90;;;;;;7379231;19;20003;-75
2024/02/23 03:53:55;;;;;;;11.20;1.60;;;9.20;99.90;;;;;;7380116;19;20010;-75
2024/02/23 03:56:23;;;;;;;3.80;1.25;;;9.20;99.90;;;;;;7401206;19;20013;-76
2024/02/23 03:58:52;;;;;;;1.88;1.10;;;9.10;99.90;;;;;;7379497;19;20074;-75
2024/02/23 04:01:24;;;;;;;14.15;1.85;;;9.10;99.90;;;;;;7377306;19;20007;-75
2024/02/23 04:03:52;;;;;;;9.45;1.52;;;9.10;99.90;;;;;;7379996;19;20003;-75
2024/02/23 04:06:21;;;;;;;13.82;1.50;;;9.10;99.90;;;;;;7380050;19;20006;-75
2024/02/23 04:08:50;;;;;;;15.30;1.45;;;9.00;99.90;;;;;;7401656;19;20007;-76
2024/02/23 04:11:18;;;;;;;12.25;2.05;;;9.10;99.90;;;;;;7379153;19;20358;-76
2024/02/23 04:13:47;;;;;;;8.75;1.60;;;9.20;99.90;;;;;;7378866;19;20074;-75
2024/02/23 04:16:19;;;;;;;10.30;1.55;;;9.10;99.90;;;;;;7378874;19;20382;-75
2024/02/23 04:18:50;;;;;;;10.73;1.35;;;9.20;99.90;;;;;;7379799;19;20021;-75
2024/02/23 04:21:18;;;;;;;5.78;1.30;;;8.80;99.90;;;;;;7378543;19;20070;-75
2024/02/23 04:23:47;;;;;;;12.48;1.77;;;9.00;99.90;;;;;;7400816;19;20054;-74
2024/02/23 04:26:18;;;;;;;10.85;1.80;;;9.00;99.90;;;;;;7378177;19;20338;-75
2024/02/23 04:28:47;;;;;;;9.23;1.58;;;9.00;99.90;;;;;;7378581;19;20353;-74
2024/02/23 04:31:16;;;;;;;10.50;1.73;;;9.00;99.90;;;;;;7378716;19;20064;-75
2024/02/23 04:33:44;;;;;;;8.55;1.60;;;9.10;99.90;;;;;;7378875;19;20006;-75
2024/02/23 04:36:16;;;;;;;15.07;1.50;;;9.20;99.90;;;;;;7378771;19;20811;-76
2024/02/23 04:38:44;;;;;;;;;;;9.00;99.90;;;;;;7400684;19;20013;-76
2024/02/23 04:41:13;;;;;;;8.40;1.27;;;8.90;99.90;;;;;;7376546;19;19920;-75
2024/02/23 04:43:42;;;;;;;6.03;1.48;;;8.80;99.90;;;;;;7378248;19;20010;-76
2024/02/23 04:46:12;;;;;;;18.63;2.10;;;9.00;99.90;;;;;;7378140;19;20047;-75
2024/02/23 04:48:41;;;;;;;18.95;1.52;;;9.00;99.90;;;;;;7378721;19;20011;-75
2024/02/23 04:51:10;;;;;;;10.05;2.00;;;9.20;99.90;;;;;;7378904;19;20006;-75
2024/02/23 04:53:44;;;;;;;8.40;1.55;;;9.20;99.90;;;;;;7399305;19;20014;-76
2024/02/23 04:56:13;;;;;;;11.00;1.67;;;9.20;99.90;;;;;;7377375;19;20077;-76
2024/02/23 04:58:42;;;;;;;10.93;2.03;;;9.10;99.90;;;;;;7378222;19;20078;-75
2024/02/23 05:01:11;;;;;;;10.38;1.42;;;9.10;99.90;;;;;;7378137;19;20003;-75
2024/02/23 05:03:40;;;;;;;4.00;1.67;;;9.20;99.90;;;;;;7378306;19;20082;-74
2024/02/23 05:06:10;;;;;;;3.65;1.48;;;9.10;99.90;;;;;;7378089;19;20070;-76
2024/02/23 05:08:41;;;;;;;12.73;1.98;;;9.20;99.90;;;;;;7399222;19;20014;-78
2024/02/23 05:11:11;;;;;;;;;;;9.20;99.90;;;;;;7377901;19;20006;-76
2024/02/23 05:13:41;;;;;;;6.47;1.52;;;9.20;99.90;;;;;;7377302;19;20064;-75
2024/02/23 05:16:10;;;;;;;9.07;1.65;;;9.20;99.90;;;;;;7377466;19;20023;-76
2024/02/23 05:18:39;;;;;;;21.17;1.83;;;9.20;99.90;;;;;;7377135;19;20002;-75
2024/02/23 05:21:09;;;;;;;8.02;1.73;;;9.30;99.90;;;;;;7376942;19;20086;-76
2024/02/23 05:23:41;;;;;;;4.55;1.10;;;9.30;99.90;;;;;;7399229;19;20059;-76
2024/02/23 05:26:10;;;;;;;17.45;1.88;;;9.20;99.90;;;;;;7376609;19;20019;-76
2024/02/23 05:28:39;;;;;;;20.60;2.00;;;9.20;99.90;;;;;;7376789;19;20496;-75
2024/02/23 05:31:08;;;;;;;4.88;1.08;;;9.20;99.90;;;;;;7379322;19;20263;-75
2024/02/23 05:33:38;;;;;;;5.72;1.38;;;9.20;99.90;;;;;;7375749;19;20015;-77
2024/02/23 05:36:07;;;;;;;6.93;1.52;;;9.10;99.90;;;;;;7378409;19;20017;-76
2024/02/23 05:38:36;;;;;;;12.85;1.48;;;9.20;99.90;;;;;;7398906;19;20014;-76
2024/02/23 05:41:07;;;;;;;10.93;1.85;;;9.10;99.90;;;;;;7375922;19;20027;-78
2024/02/23 05:43:36;;;;;;;6.55;1.45;;;9.20;99.90;;;;;;7379659;19;20009;-77
2024/02/23 05:46:05;;;;;;;19.30;1.80;;;9.20;99.90;;;;;;7377429;19;20007;-74
2024/02/23 05:48:33;;;;;;;13.25;1.88;;;9.20;99.90;;;;;;7378543;19;20086;-74
2024/02/23 05:51:02;;;;;;;11.27;1.92;;;9.30;99.90;;;;;;7378417;19;20435;-75
2024/02/23 05:53:32;;;;;;;7.43;1.30;;;9.30;99.90;;;;;;7396676;19;20028;-75
2024/02/23 05:56:01;;;;;;;10.82;1.70;;;9.30;99.90;;;;;;7376915;19;20346;-76
2024/02/23 05:58:35;;;;;;;8.93;1.23;;;9.10;99.90;;;;;;7376048;19;20062;-75
2024/02/23 06:01:04;;;;;;;5.25;1.23;;;8.90;99.90;;;;;;7375569;19;20049;-74
2024/02/23 06:03:35;;;;;;;20.60;1.92;;;9.00;99.90;;;;;;7376292;19;20014;-74
2024/02/23 06:06:04;;;;;;;8.40;1.60;;;9.00;99.90;;;;;;7376140;19;20247;-74
2024/02/23 06:08:32;;;;;;;10.60;1.38;;;8.70;99.90;;;;;;7397799;19;20246;-74
2024/02/23 06:11:03;;;;;;;13.90;1.50;;;8.80;99.90;;;;;;7375704;19;20260;-74
2024/02/23 06:13:34;;;;;;;5.77;1.17;;;8.90;99.90;;;;;;7376400;19;20003;-74
2024/02/23 06:16:03;;;;;;;6.28;1.20;;;8.90;99.90;;;;;;7395393;19;20243;-73
2024/02/23 06:18:31;;;;;;;4.13;1.30;;;9.00;99.90;;;;;;7394142;19;20003;-74
2024/02/23 06:21:00;;;;;;;8.75;1.05;;;9.10;99.90;;;;;;7391834;19;20365;-76
2024/02/23 06:23:29;;;;;;;12.35;1.80;;;9.10;99.90;;;;;;7412434;19;20010;-74
2024/02/23 06:25:57;;;;;;;7.88;1.52;;;9.20;99.90;;;;;;7396740;19;20007;-74
2024/02/23 06:28:26;;;;;;;3.65;1.20;;;9.20;99.90;;;;;;7397711;19;20034;-74
2024/02/23 06:30:57;;;;;;;7.38;1.55;;;9.10;99.90;;;;;;7389510;19;20023;-74
2024/02/23 06:33:26;;;;;;;9.10;1.52;;;9.20;99.90;;;;;;7381653;19;20074;-74
2024/02/23 06:35:55;;;;;;;10.27;1.48;;;9.20;99.90;;;;;;7404297;19;20597;-74
2024/02/23 06:38:23;;;;;;;7.72;1.17;;;9.20;99.90;;;;;;7382602;19;20014;-76
2024/02/23 06:40:52;;;;;;;13.18;1.42;;;9.10;99.90;;;;;;7384119;19;20070;-75
2024/02/23 06:43:21;;;;;;;4.50;1.27;;;9.20;99.90;;;;;;7382370;19;20050;-74
2024/02/23 06:45:52;;;;;;;6.72;1.05;;;9.20;99.90;;;;;;7380797;19;20007;-75
2024/02/23 06:48:25;;;;;;;13.20;1.60;;;9.20;99.90;;;;;;7383287;19;20062;-74
2024/02/23 06:50:54;;;;;;;6.30;1.60;;;9.20;99.90;;;;;;7404311;19;20058;-74
2024/02/23 06:53:24;;;;;;;15.88;2.10;;;9.20;99.90;;;;;;7381674;19;20002;-77
2024/02/23 06:55:53;;;;;;;7.18;1.13;;;9.30;99.90;;;;;;7381529;19;20028;-74
2024/02/23 06:58:21;;;;;;;11.85;1.80;;;9.30;99.90;;;;;;7381593;19;20372;-74
2024/02/23 07:00:50;;;;;;;8.85;1.60;;;9.30;99.90;;;;;;7381103;19;20019;-74
2024/02/23 07:03:19;;;;;;;6.18;1.08;;;9.20;99.90;;;;;;7382173;19;20079;-74
2024/02/23 07:05:50;;;;;;;6.45;1.98;;;9.30;99.90;;;;;;7403638;19;20002;-74
2024/02/23 07:08:19;;;;;;;8.77;1.25;;;9.40;99.90;;;;;;7381294;19;20015;-74
2024/02/23 07:10:48;;;;;;;5.85;1.65;;;9.50;99.90;;;;;;7381318;19;20010;-76
2024/02/23 07:13:17;;;;;;;7.65;1.77;;;9.60;99.90;;;;;;7381381;19;20345;-75
2024/02/23 07:15:46;;;;;;;12.65;1.65;;;9.70;99.90;;;;;;7381383;19;20046;-75
2024/02/23 07:18:15;;;;;;;8.90;1.67;;;9.70;99.90;;;;;;7379184;19;20078;-75
2024/02/23 07:20:44;;;;;;;10.27;1.58;;;9.70;99.90;;;;;;7401728;19;20011;-75
2024/02/23 07:23:18;;;;;;;3.97;1.40;;;9.80;99.90;;;;;;7383330;19;20082;-74
2024/02/23 07:25:47;;;;;;;12.73;1.90;;;9.80;99.90;;;;;;7380412;19;20053;-74
2024/02/23 07:28:18;;;;;;;7.15;1.70;;;9.70;99.90;;;;;;7380773;19;20299;-74
2024/02/23 07:30:46;;;;;;;4.17;1.30;;;9.80;99.90;;;;;;7381234;19;20007;-75
2024/02/23 07:33:15;;;;;;;8.98;1.52;;;9.90;99.90;;;;;;7380818;19;20417;-74
2024/02/23 07:35:44;;;;;;;6.38;1.42;;;9.90;99.90;;;;;;7402385;19;20028;-75
2024/02/23 07:38:17;;;;;;;15.48;2.05;;;9.80;99.90;;;;;;7379921;19;20118;-75
2024/02/23 07:40:46;;;;;;;9.80;1.75;;;9.70;99.90;;;;;;7379443;19;20003;-75
2024/02/23 07:43:15;;;;;;;18.05;1.83;;;9.70;99.90;;;;;;7380698;19;20407;-75
2024/02/23 07:45:43;;;;;;;8.55;1.58;;;9.60;99.90;;;;;;7380505;19;20070;-75
2024/02/23 07:48:12;;;;;;;12.07;1.40;;;9.70;99.90;;;;;;7380840;19;20110;-75
2024/02/23 07:50:41;;;;;;;6.80;1.25;;;9.60;99.90;;;;;;7400710;19;20078;-75
2024/02/23 07:53:11;;;;;;;9.13;1.55;;;9.60;99.90;;;;;;7379210;19;20011;-75
2024/02/23 07:55:42;;;;;;;8.10;1.80;;;9.60;99.90;;;;;;7379716;19;20066;-75
2024/02/23 07:58:11;;;;;;;7.82;1.60;;;9.70;99.90;;;;;;7379756;19;20303;-75
2024/02/23 08:00:40;;;;;;;15.13;3.25;;;9.70;99.90;;;;;;7379986;19;20066;-75
2024/02/23 08:03:09;;;;;;;15.95;2.50;;;9.70;99.90;;;;;;7379494;19;20365;-74
2024/02/23 08:05:40;;;;;;;11.77;3.00;;;9.70;99.90;;;;;;7400040;19;20007;-75
2024/02/23 08:08:09;;;;;;;14.77;2.42;;;9.80;99.90;;;;;;7378592;19;20010;-75
2024/02/23 08:10:38;;;;;;;13.63;2.50;;;9.60;99.90;;;;;;7378798;19;20275;-75
2024/02/23 08:13:10;;;;;;;16.02;4.30;;;9.60;99.90;;;;;;7379317;19;20063;-74
2024/02/23 08:15:39;;;;;;;14.02;3.05;;;9.60;99.90;;;;;;7379666;19;19998;-74
2024/02/23 08:18:08;;;;;;;10.90;2.40;;;9.40;99.90;;;;;;7377178;19;20019;-74
2024/02/23 08:20:37;;;;;;;13.65;2.22;;;9.60;99.90;;;;;;7400452;19;20023;-74
2024/02/23 08:23:06;;;;;;;12.20;2.72;;;9.70;99.90;;;;;;7378301;19;20003;-74
2024/02/23 08:25:34;;;;;;;13.65;2.65;;;9.70;99.90;;;;;;7378539;19;20066;-74
2024/02/23 08:28:03;;;;;;;5.82;2.05;;;9.80;99.90;;;;;;7379202;19;20059;-75
2024/02/23 08:30:34;;;;;;;16.17;2.38;;;9.60;99.90;;;;;;7379039;19;20083;-75
2024/02/23 08:33:03;;;;;;;8.90;2.13;;;9.50;99.90;;;;;;7400515;19;20094;-75
2024/02/23 08:35:32;;;;;;;10.35;2.25;;;9.40;99.90;;;;;;7378362;19;20016;-75
2024/02/23 08:38:02;;;;;;;8.82;1.63;;;9.50;99.90;;;;;;7377766;19;20007;-75
2024/02/23 08:40:31;;;;;;;10.38;1.80;;;9.40;99.90;;;;;;7378965;19;20021;-74
2024/02/23 08:43:01;;;;;;;22.95;2.47;;;9.10;99.90;;;;;;7377834;19;20023;-74
2024/02/23 08:45:29;;;;;;;7.72;2.05;;;9.40;99.90;;;;;;7378630;19;20084;-74
2024/02/23 08:48:01;;;;;;;8.77;1.77;;;9.40;99.90;;;;;;7398219;19;20142;-74
2024/02/23 08:50:29;;;;;;;12.82;2.20;;;9.60;99.90;;;;;;7377503;19;20006;-74
2024/02/23 08:52:58;;;;;;;4.32;1.52;;;9.70;99.90;;;;;;7377910;19;20240;-74
2024/02/23 08:55:27;;;;;;;6.07;1.90;;;9.80;99.90;;;;;;7377974;19;20062;-74
2024/02/23 08:57:55;;;;;;;15.27;2.05;;;10.00;99.90;;;;;;7377931;19;20452;-75
2024/02/23 09:00:26;;;;;;;15.70;2.42;;;10.10;99.90;;;;;;7378759;19;20066;-75
2024/02/23 09:02:55;;;;;;;17.45;2.58;;;10.10;99.90;;;;;;7398502;19;20066;-74
2024/02/23 09:05:27;;;;;;;16.05;3.60;;;10.00;99.90;;;;;;7377558;19;19999;-75
2024/02/23 09:07:56;;;;;;;17.75;1.98;;;9.90;99.90;;;;;;7377806;19;20380;-74
2024/02/23 09:10:25;;;;;;;9.32;1.73;;;10.10;99.90;;;;;;7378497;19;20059;-75
2024/02/23 09:12:53;;;;;;;8.63;2.55;;;10.20;99.90;;;;;;7384155;19;20007;-74
2024/02/23 09:15:22;;;;;;;9.45;2.60;;;10.10;99.90;;;;;;7391806;19;20011;-74
2024/02/23 09:17:52;;;;;;;13.20;2.08;;;10.20;99.90;;;;;;7411880;19;20018;-74
2024/02/23 09:20:21;;;;;;;15.35;2.15;;;10.30;99.90;;;;;;7383196;19;20006;-76
2024/02/23 09:22:52;;;;;;;11.30;2.25;;;10.30;99.90;;;;;;7382779;19;20071;-75
2024/02/23 09:25:21;;;;;;;;;;;10.20;99.90;;;;;;7381156;19;20003;-75
2024/02/23 09:27:49;;;;;;;4.43;1.60;;;10.10;99.90;;;;;;7377467;19;19926;-75
2024/02/23 09:30:18;;;;;;;16.23;2.13;;;10.30;99.90;;;;;;7376781;19;20082;-75
2024/02/23 09:32:47;;;;;;;9.02;1.85;;;10.30;99.90;;;;;;7398884;19;20015;-75
2024/02/23 09:35:16;;;;;;;9.90;1.92;;;10.30;99.90;;;;;;7376697;19;20023;-75
2024/02/23 09:37:44;;;;;;;12.75;2.03;;;10.20;99.90;;;;;;7376550;19;20441;-75
2024/02/23 09:40:20;;;;;;;7.28;1.52;;;10.40;99.90;;;;;;7376534;19;20293;-75
2024/02/23 09:42:58;;;;;;;5.88;1.63;;;10.40;99.90;;;;;;7375452;19;20006;-75
2024/02/23 09:45:28;;;;;;;10.13;1.60;;;10.40;99.90;;;;;;7377042;19;20018;-75
2024/02/23 09:48:00;;;;;;;6.90;1.43;;;10.50;99.90;;;;;;7402454;19;20034;-75
2024/02/23 09:50:32;;;;;;;8.05;2.17;;;10.40;99.90;;;;;;7375828;19;20071;-76
2024/02/23 09:53:01;;;;;;;13.63;2.08;;;10.50;99.90;;;;;;7375849;19;20032;-76
2024/02/23 09:55:32;;;;;;;7.82;1.90;;;10.50;99.90;;;;;;7376086;19;19999;-76
2024/02/23 09:58:02;;;;;;;9.32;1.58;;;10.50;99.90;;;;;;7374949;19;20014;-75
2024/02/23 10:00:32;;;;;;;12.02;1.98;;;10.50;99.90;;;;;;7379011;19;20083;-75
2024/02/23 10:03:01;;;;;;;8.00;2.10;;;10.30;99.90;;;;;;7402558;19;20252;-74
2024/02/23 10:05:33;;;;;;;7.97;1.55;;;10.30;99.90;;;;;;7382605;19;20122;-75
2024/02/23 10:08:02;;;;;;;9.73;1.98;;;10.40;99.90;;;;;;7383425;19;20006;-76
2024/02/23 10:10:36;;;;;;;11.63;1.73;;;10.40;99.90;;;;;;7383968;19;20417;-75
2024/02/23 10:13:06;;;;;;;18.55;2.50;;;10.50;99.90;;;;;;7383281;19;20047;-75
2024/02/23 10:15:34;;;;;;;8.80;1.90;;;10.50;99.90;;;;;;7383440;19;20003;-75
2024/02/23 10:18:03;;;;;;;14.23;1.90;;;10.60;99.90;;;;;;7402783;19;20011;-75
2024/02/23 10:20:32;;;;;;;6.72;1.50;;;10.70;99.90;;;;;;7382143;19;20075;-75
2024/02/23 10:23:01;;;;;;;11.90;2.60;;;10.60;99.90;;;;;;7380462;19;20075;-75
2024/02/23 10:25:30;;;;;;;6.88;2.40;;;10.70;99.90;;;;;;7383201;19;20010;-75
2024/02/23 10:28:02;;;;;;;16.70;2.45;;;10.50;99.90;;;;;;7382585;19;20011;-76
2024/02/23 10:30:31;;;;;;;9.73;1.95;;;10.20;99.90;;;;;;7383960;19;20111;-76
2024/02/23 10:33:00;;;;;;;11.40;1.88;;;10.10;99.90;;;;;;7405337;19;20100;-75
2024/02/23 10:35:31;;;;;;;13.85;2.10;;;10.30;99.90;;;;;;7382537;19;20010;-76
2024/02/23 10:38:00;;;;;;;10.27;1.63;;;10.20;99.90;;;;;;7383068;19;20027;-75
2024/02/23 10:40:36;;;;;;;7.38;1.73;;;10.50;99.90;;;;;;7382968;19;19999;-76
2024/02/23 10:43:12;;;;;;;5.72;1.30;;;10.60;99.90;;;;;;7382055;19;20086;-75
2024/02/23 10:45:41;;;;;;;9.57;1.73;;;10.70;99.90;;;;;;7383658;19;20011;-75
2024/02/23 10:48:14;;;;;;;12.80;1.95;;;10.70;99.90;;;;;;7400492;19;20009;-75
2024/02/23 10:50:44;;;;;;;6.80;1.85;;;10.90;99.90;;;;;;7403727;19;20010;-76
2024/02/23 10:53:14;;;;;;;7.00;1.70;;;10.90;99.90;;;;;;7381497;19;20006;-76
2024/02/23 10:55:45;;;;;;;8.55;1.65;;;11.00;99.90;;;;;;7381921;19;20048;-76
2024/02/23 10:58:16;;;;;;;13.35;1.83;;;11.20;99.90;;;;;;7382064;19;20298;-76
2024/02/23 11:00:46;;;;;;;8.27;1.60;;;11.30;99.90;;;;;;7381930;19;20322;-74
2024/02/23 11:03:17;;;;;;;7.72;1.30;;;11.40;99.90;;;;;;7379934;19;20232;-75
2024/02/23 11:05:49;;;;;;;4.75;1.58;;;11.30;99.90;;;;;;7403573;19;20078;-74
2024/02/23 11:08:21;;;;;;;7.30;1.60;;;11.40;99.90;;;;;;7384969;19;20016;-75
2024/02/23 11:10:53;;;;;;;5.30;1.75;;;11.40;99.90;;;;;;7380839;19;20009;-75
2024/02/23 11:13:32;;;;;;;9.90;1.67;;;11.50;99.90;;;;;;7381562;19;20400;-75
2024/02/23 11:16:06;;;;;;;7.95;1.70;;;11.50;99.90;;;;;;7381373;19;20006;-75
2024/02/23 11:18:37;;;;;;;7.00;1.80;;;11.60;99.90;;;;;;7381719;19;20032;-75
2024/02/23 11:21:07;;;;;;;6.30;1.30;;;11.40;99.90;;;;;;7403209;19;20525;-75
2024/02/23 11:23:43;;;;;;;5.40;1.30;;;11.50;99.90;;;;;;7379095;19;20015;-75
2024/02/23 11:26:13;;;;;;;12.02;1.45;;;11.50;99.90;;;;;;7380626;19;20007;-76
2024/02/23 11:28:53;;;;;;;7.45;1.58;;;11.50;99.90;;;;;;7383367;19;20010;-75
2024/02/23 11:31:24;;;;;;;5.10;1.60;;;11.40;99.90;;;;;;7382879;19;20011;-74
2024/02/23 11:33:53;;;;;;;11.55;1.85;;;11.40;99.90;;;;;;7381356;19;20493;-75
2024/02/23 11:36:30;;;;;;;9.20;1.63;;;11.40;99.90;;;;;;7382771;19;20015;-75
2024/02/23 11:39:00;;;;;;;11.60;1.30;;;11.40;99.90;;;;;;7402667;19;20074;-75
2024/02/23 11:41:31;;;;;;;5.45;1.77;;;11.20;99.90;;;;;;7382822;19;20019;-75
2024/02/23 11:44:03;;;;;;;6.88;1.25;;;11.30;99.90;;;;;;7381826;19;20090;-75
2024/02/23 11:46:34;;;;;;;7.55;1.50;;;11.20;99.90;;;;;;7380841;19;20034;-75
2024/02/23 11:49:03;;;;;;;17.05;2.40;;;11.10;99.90;;;;;;7380761;19;20010;-74
2024/02/23 11:51:32;;;;;;;8.00;1.20;;;11.20;99.90;;;;;;7379016;19;20028;-74
2024/02/23 11:54:01;;;;;;;6.63;1.38;;;10.80;99.90;;;;;;7401879;19;20014;-74
2024/02/23 11:56:31;;;;;;;8.57;1.38;;;10.60;99.90;;;;;;7379844;19;20010;-74
2024/02/23 11:59:02;;;;;;;6.88;1.27;;;10.60;99.90;;;;;;7379769;19;20009;-74
2024/02/23 12:01:31;;;;;;;;;;;10.50;99.90;;;;;;7383368;19;20457;-74
2024/02/23 12:04:00;;;;;;;5.28;1.05;;;10.50;99.90;;;;;;7391746;19;19914;-75
2024/02/23 12:06:32;;;;;;;6.00;1.33;;;10.80;99.90;;;;;;7394768;19;20016;-75
2024/02/23 12:09:01;;;;;;;8.32;1.40;;;11.10;99.90;;;;;;7416575;19;20013;-74
2024/02/23 12:11:30;;;;;;;6.22;1.00;;;11.20;99.90;;;;;;7394317;19;20011;-74
2024/02/23 12:14:07;;;;;;;4.30;1.20;;;11.10;99.90;;;;;;7393087;19;20010;-73
2024/02/23 12:16:36;;;;;;;3.40;1.50;;;11.20;99.90;;;;;;7391798;19;20015;-74
2024/02/23 12:19:05;;;;;;;6.40;1.40;;;11.30;99.90;;;;;;7383077;19;20006;-73
2024/02/23 12:21:37;;;;;;;5.18;1.25;;;11.40;99.90;;;;;;7378800;19;20007;-73
2024/02/23 12:24:09;;;;;;;3.72;1.17;;;11.40;99.90;;;;;;7399108;19;20219;-74
2024/02/23 12:26:37;;;;;;;7.72;1.65;;;11.40;99.90;;;;;;7378469;19;20006;-74
2024/02/23 12:29:09;;;;;;;4.28;1.60;;;11.40;99.90;;;;;;7378571;19;20046;-74
2024/02/23 12:31:37;;;;;;;;;;;11.50;99.90;;;;;;7379606;19;20011;-75
2024/02/23 12:34:07;;;;;;;5.82;1.38;;;11.70;99.90;;;;;;7379354;19;19974;-76
2024/02/23 12:36:38;;;;;;;4.72;0.90;;;11.60;99.90;;;;;;7381681;19;20284;-73
2024/02/23 12:39:07;;;;;;;11.80;1.45;;;11.50;99.90;;;;;;7402464;19;20041;-77
2024/02/23 12:41:36;;;;;;;3.63;0.80;;;11.40;99.90;;;;;;7378826;19;20011;-76
2024/02/23 12:44:07;;;;;;;10.68;1.15;;;11.40;99.90;;;;;;7378289;19;20091;-76
2024/02/23 12:46:36;;;;;;;10.00;1.10;;;11.50;99.90;;;;;;7378650;19;20427;-74
2024/02/23 12:49:04;;;;;;;6.00;1.55;;;11.60;99.90;;;;;;7378282;19;20067;-76
2024/02/23 12:51:33;;;;;;;10.15;1.52;;;11.60;99.90;;;;;;7378374;19;20011;-73
2024/02/23 12:54:04;;;;;;;6.63;1.38;;;11.60;99.90;;;;;;7399585;19;20023;-74
2024/02/23 12:56:33;;;;;;;6.00;0.90;;;11.80;99.90;;;;;;7378601;19;20413;-73
2024/02/23 12:59:02;;;;;;;4.57;1.33;;;11.80;99.90;;;;;;7378077;19;20585;-73
2024/02/23 13:01:36;;;;;;;6.25;1.20;;;11.90;99.90;;;;;;7378070;19;20373;-73
2024/02/23 13:04:09;;;;;;;4.50;1.25;;;12.00;99.90;;;;;;7375972;19;20007;-73